createdAt,value
2017-12-13T00:01:36.671Z,99002
2017-12-13T00:03:44.799Z,99004
2017-12-13T00:05:53.484Z,99001
2017-12-13T00:08:01.106Z,98999
2017-12-13T00:10:10.884Z,99004
2017-12-13T00:12:18.612Z,99001
2017-12-13T00:14:30.371Z,98997
2017-12-13T00:16:37.947Z,99004
2017-12-13T00:18:45.206Z,99002
2017-12-13T00:20:51.418Z,99003
2017-12-13T00:22:56.869Z,99004
2017-12-13T00:25:05.125Z,99009
2017-12-13T00:27:11.066Z,98996
2017-12-13T00:29:18.052Z,98999
2017-12-13T00:31:24.081Z,99000
2017-12-13T00:33:29.827Z,99005
2017-12-13T00:35:35.506Z,99007
2017-12-13T00:37:41.470Z,99006
2017-12-13T00:39:48.354Z,99010
2017-12-13T00:41:54.615Z,99009
2017-12-13T00:44:00.678Z,99003
2017-12-13T00:46:06.095Z,99011
2017-12-13T00:48:11.882Z,98999
2017-12-13T00:50:17.474Z,99002
2017-12-13T00:52:23.094Z,98997
2017-12-13T00:54:28.725Z,99010
2017-12-13T00:56:34.026Z,99009
2017-12-13T00:58:39.803Z,99001
2017-12-13T01:00:45.993Z,99003
2017-12-13T01:02:51.972Z,99014
2017-12-13T01:04:57.517Z,99011
2017-12-13T01:07:03.521Z,99006
2017-12-13T01:09:09.173Z,99011
2017-12-13T01:11:14.961Z,99004
2017-12-13T01:13:20.876Z,99003
2017-12-13T01:15:27.286Z,99005
2017-12-13T01:17:35.039Z,99006
2017-12-13T01:19:41.335Z,99011
2017-12-13T01:21:48.683Z,99014
2017-12-13T01:23:54.136Z,99024
2017-12-13T01:26:00.873Z,99027
2017-12-13T01:28:06.494Z,99021
2017-12-13T01:30:14.135Z,99024
2017-12-13T01:32:19.854Z,99022
2017-12-13T01:34:26.334Z,99030
2017-12-13T01:36:32.111Z,99027
2017-12-13T01:38:38.688Z,99024
2017-12-13T01:40:44.255Z,99030
2017-12-13T01:42:49.767Z,99025
2017-12-13T01:44:56.855Z,99022
2017-12-13T01:47:03.850Z,99018
2017-12-13T01:49:09.371Z,99018
2017-12-13T01:51:15.224Z,99016
2017-12-13T01:53:20.768Z,99015
2017-12-13T01:55:26.818Z,99014
2017-12-13T01:57:32.682Z,99015
2017-12-13T01:59:39.278Z,99014
2017-12-13T02:01:46.514Z,99009
2017-12-13T02:03:52.154Z,99017
2017-12-13T02:05:57.841Z,99011
2017-12-13T02:08:04.609Z,99014
2017-12-13T02:10:13.022Z,99017
2017-12-13T02:12:21.620Z,99010
2017-12-13T02:14:27.537Z,99002
2017-12-13T02:16:34.161Z,99004
2017-12-13T02:18:39.935Z,99010
2017-12-13T02:20:45.608Z,99003
2017-12-13T02:22:51.871Z,99003
2017-12-13T02:24:58.919Z,99002
2017-12-13T02:27:05.241Z,98996
2017-12-13T02:29:11.263Z,99002
2017-12-13T02:31:17.124Z,99006
2017-12-13T02:33:23.192Z,99005
2017-12-13T02:35:28.539Z,99005
2017-12-13T02:37:34.691Z,99000
2017-12-13T02:39:40.164Z,99005
2017-12-13T02:41:45.655Z,99010
2017-12-13T02:43:51.598Z,99009
2017-12-13T02:45:57.344Z,99007
2017-12-13T02:48:03.624Z,99003
2017-12-13T02:50:09.981Z,98998
2017-12-13T02:52:15.586Z,99002
2017-12-13T02:54:21.160Z,99001
2017-12-13T02:56:28.096Z,98997
2017-12-13T02:58:35.053Z,98995
2017-12-13T03:00:41.660Z,98988
2017-12-13T03:02:47.589Z,98989
2017-12-13T03:04:53.074Z,98988
2017-12-13T03:06:58.744Z,98988
2017-12-13T03:09:04.564Z,98987
2017-12-13T03:11:10.723Z,98988
2017-12-13T03:13:16.386Z,98985
2017-12-13T03:15:22.089Z,98984
2017-12-13T03:17:27.399Z,98982
2017-12-13T03:19:33.281Z,98985
2017-12-13T03:21:39.087Z,98983
2017-12-13T03:23:44.650Z,98983
2017-12-13T03:25:50.477Z,98990
2017-12-13T03:27:56.077Z,98988
2017-12-13T03:30:01.671Z,98983
2017-12-13T03:32:07.086Z,98983
2017-12-13T03:34:12.703Z,98978
2017-12-13T03:36:18.293Z,98978
2017-12-13T03:38:23.707Z,98971
2017-12-13T03:40:29.311Z,98967
2017-12-13T03:42:34.770Z,98968
2017-12-13T03:44:39.941Z,98961
2017-12-13T03:46:46.097Z,98962
2017-12-13T03:48:51.255Z,98960
2017-12-13T03:50:59.780Z,98953
2017-12-13T03:53:05.357Z,98948
2017-12-13T03:55:11.349Z,98942
2017-12-13T03:57:16.679Z,98938
2017-12-13T03:59:22.191Z,98945
2017-12-13T04:01:27.754Z,98942
2017-12-13T04:03:33.074Z,98935
2017-12-13T04:05:38.913Z,98931
2017-12-13T04:07:44.557Z,98933
2017-12-13T04:09:50.110Z,98929
2017-12-13T04:12:11.838Z,98934
2017-12-13T04:14:17.330Z,98927
2017-12-13T04:16:22.983Z,98927
2017-12-13T04:18:28.076Z,98917
2017-12-13T04:20:33.400Z,98917
2017-12-13T04:22:39.560Z,98918
2017-12-13T04:24:45.141Z,98916
2017-12-13T04:26:50.871Z,98914
2017-12-13T04:28:56.053Z,98909
2017-12-13T04:31:02.391Z,98905
2017-12-13T04:33:07.709Z,98905
2017-12-13T04:35:14.279Z,98901
2017-12-13T04:37:19.998Z,98899
2017-12-13T04:39:25.214Z,98901
2017-12-13T04:41:31.281Z,98898
2017-12-13T04:43:36.563Z,98901
2017-12-13T04:45:41.983Z,98895
2017-12-13T04:47:47.253Z,98902
2017-12-13T04:49:52.738Z,98906
2017-12-13T04:51:58.232Z,98906
2017-12-13T04:54:03.650Z,98902
2017-12-13T04:56:09.185Z,98902
2017-12-13T04:58:14.584Z,98907
2017-12-13T05:00:19.853Z,98912
2017-12-13T05:02:25.546Z,98904
2017-12-13T05:04:30.752Z,98895
2017-12-13T05:06:36.787Z,98893
2017-12-13T05:08:47.020Z,98898
2017-12-13T05:10:52.284Z,98894
2017-12-13T05:12:58.282Z,98905
2017-12-13T05:15:04.058Z,98899
2017-12-13T05:17:13.071Z,98895
2017-12-13T05:19:18.512Z,98891
2017-12-13T05:21:24.314Z,98874
2017-12-13T05:23:29.784Z,98879
2017-12-13T05:25:35.344Z,98876
2017-12-13T05:27:42.779Z,98872
2017-12-13T05:29:48.661Z,98863
2017-12-13T05:31:54.307Z,98857
2017-12-13T05:34:00.156Z,98853
2017-12-13T05:36:06.070Z,98839
2017-12-13T05:38:12.624Z,98830
2017-12-13T05:40:19.963Z,98826
2017-12-13T05:42:25.635Z,98824
2017-12-13T05:44:31.169Z,98840
2017-12-13T05:46:38.395Z,98831
2017-12-13T05:48:44.667Z,98832
2017-12-13T05:50:50.063Z,98833
2017-12-13T05:52:55.870Z,98837
2017-12-13T05:55:01.380Z,98845
2017-12-13T05:57:06.868Z,98857
2017-12-13T05:59:12.416Z,98847
2017-12-13T06:01:17.977Z,98847
2017-12-13T06:03:23.599Z,98852
2017-12-13T06:05:30.365Z,98848
2017-12-13T06:07:35.928Z,98847
2017-12-13T06:09:41.836Z,98854
2017-12-13T06:11:48.431Z,98852
2017-12-13T06:13:59.457Z,98834
2017-12-13T06:16:07.120Z,98834
2017-12-13T06:18:16.187Z,98833
2017-12-13T06:20:23.778Z,98835
2017-12-13T06:22:31.481Z,98826
2017-12-13T06:24:38.489Z,98820
2017-12-13T06:26:44.245Z,98815
2017-12-13T06:28:49.641Z,98819
2017-12-13T06:30:56.617Z,98822
2017-12-13T06:33:04.444Z,98816
2017-12-13T06:35:10.299Z,98810
2017-12-13T06:37:16.076Z,98805
2017-12-13T06:39:21.713Z,98809
2017-12-13T06:41:27.016Z,98819
2017-12-13T06:43:33.312Z,98824
2017-12-13T06:45:39.838Z,98819
2017-12-13T06:47:47.014Z,98825
2017-12-13T06:49:53.045Z,98816
2017-12-13T06:51:59.074Z,98814
2017-12-13T06:54:04.730Z,98814
2017-12-13T06:56:11.030Z,98805
2017-12-13T06:58:16.629Z,98803
2017-12-13T07:00:22.360Z,98820
2017-12-13T07:02:31.540Z,98803
2017-12-13T07:04:37.439Z,98807
2017-12-13T07:06:45.276Z,98803
2017-12-13T07:08:51.399Z,98801
2017-12-13T07:10:58.066Z,98793
2017-12-13T07:13:05.039Z,98803
2017-12-13T07:15:11.126Z,98791
2017-12-13T07:17:17.377Z,98793
2017-12-13T07:19:22.995Z,98788
2017-12-13T07:21:29.162Z,98788
2017-12-13T07:23:41.350Z,98795
2017-12-13T07:25:50.845Z,98795
2017-12-13T07:27:58.502Z,98798
2017-12-13T07:30:04.281Z,98803
2017-12-13T07:32:11.304Z,98798
2017-12-13T07:34:17.454Z,98793
2017-12-13T07:36:30.557Z,98785
2017-12-13T07:38:37.193Z,98784
2017-12-13T07:40:49.339Z,98778
2017-12-13T07:42:55.079Z,98765
2017-12-13T07:45:02.250Z,98767
2017-12-13T07:47:08.809Z,98780
2017-12-13T07:49:15.139Z,98766
2017-12-13T07:51:23.104Z,98762
2017-12-13T07:53:29.438Z,98762
2017-12-13T07:55:40.164Z,98753
2017-12-13T07:57:46.788Z,98745
2017-12-13T07:59:53.160Z,98735
2017-12-13T08:01:59.454Z,98736
2017-12-13T08:04:05.840Z,98732
2017-12-13T08:06:12.544Z,98725
2017-12-13T08:08:19.685Z,98717
2017-12-13T08:10:27.991Z,98716
2017-12-13T08:12:40.606Z,98701
2017-12-13T08:14:47.462Z,98703
2017-12-13T08:16:56.773Z,98704
2017-12-13T08:19:03.199Z,98711
2017-12-13T08:21:10.019Z,98705
2017-12-13T08:23:15.322Z,98705
2017-12-13T08:25:24.839Z,98709
2017-12-13T08:27:30.561Z,98716
2017-12-13T08:29:35.999Z,98707
2017-12-13T08:31:42.262Z,98705
2017-12-13T08:33:49.092Z,98700
2017-12-13T08:35:57.569Z,98698
2017-12-13T08:38:04.396Z,98709
2017-12-13T08:40:12.999Z,98679
2017-12-13T08:42:20.181Z,98675
2017-12-13T08:44:27.011Z,98661
2017-12-13T08:46:32.983Z,98665
2017-12-13T08:48:38.498Z,98656
2017-12-13T08:50:44.313Z,98658
2017-12-13T08:52:49.930Z,98663
2017-12-13T08:54:56.097Z,98643
2017-12-13T08:57:04.647Z,98631
2017-12-13T08:59:10.816Z,98640
2017-12-13T09:01:16.523Z,98655
2017-12-13T09:03:24.236Z,98644
2017-12-13T09:05:30.436Z,98635
2017-12-13T09:07:36.498Z,98631
2017-12-13T09:09:42.914Z,98624
2017-12-13T09:11:52.269Z,98604
2017-12-13T09:14:00.209Z,98604
2017-12-13T09:16:06.888Z,98600
2017-12-13T09:18:15.498Z,98614
2017-12-13T09:20:21.350Z,98602
2017-12-13T09:22:27.613Z,98607
2017-12-13T09:24:33.341Z,98607
2017-12-13T09:26:39.016Z,98606
2017-12-13T09:28:45.189Z,98593
2017-12-13T09:30:51.156Z,98614
2017-12-13T09:32:57.818Z,98599
2017-12-13T09:35:03.950Z,98578
2017-12-13T09:37:11.617Z,98585
2017-12-13T09:39:20.534Z,98602
2017-12-13T09:41:26.876Z,98608
2017-12-13T09:43:32.857Z,98577
2017-12-13T09:45:38.375Z,98565
2017-12-13T09:47:48.749Z,98583
2017-12-13T09:49:55.581Z,98565
2017-12-13T09:52:00.988Z,98558
2017-12-13T09:54:09.030Z,98538
2017-12-13T09:56:16.544Z,98547
2017-12-13T09:58:23.991Z,98544
2017-12-13T10:00:36.582Z,98536
2017-12-13T10:02:44.106Z,98521
2017-12-13T10:04:51.257Z,98514
2017-12-13T10:07:04.800Z,98498
2017-12-13T10:09:11.833Z,98497
2017-12-13T10:11:21.478Z,98483
2017-12-13T10:13:28.399Z,98502
2017-12-13T10:15:36.576Z,98520
2017-12-13T10:17:43.503Z,98462
2017-12-13T10:19:50.456Z,98453
2017-12-13T10:21:58.665Z,98459
2017-12-13T10:24:06.451Z,98434
2017-12-13T10:26:12.310Z,98506
2017-12-13T10:28:18.233Z,98442
2017-12-13T10:30:25.922Z,98457
2017-12-13T10:32:33.678Z,98439
2017-12-13T10:34:40.288Z,98445
2017-12-13T10:36:50.401Z,98436
2017-12-13T10:38:57.235Z,98433
2017-12-13T10:41:03.037Z,98419
2017-12-13T10:43:09.750Z,98414
2017-12-13T10:45:17.847Z,98421
2017-12-13T10:47:26.643Z,98405
2017-12-13T10:49:32.651Z,98401
2017-12-13T10:51:38.800Z,98388
2017-12-13T10:53:45.078Z,98390
2017-12-13T10:55:50.731Z,98401
2017-12-13T10:57:56.540Z,98410
2017-12-13T11:00:03.031Z,98402
2017-12-13T11:02:11.455Z,98397
2017-12-13T11:04:20.342Z,98407
2017-12-13T11:06:26.203Z,98392
2017-12-13T11:08:35.422Z,98383
2017-12-13T11:10:48.408Z,98379
2017-12-13T11:12:56.030Z,98375
2017-12-13T11:15:02.719Z,98358
2017-12-13T11:17:09.470Z,98345
2017-12-13T11:19:17.958Z,98349
2017-12-13T11:21:29.844Z,98334
2017-12-13T11:23:38.236Z,98328
2017-12-13T11:25:48.458Z,98319
2017-12-13T11:27:56.538Z,98317
2017-12-13T11:30:03.892Z,98303
2017-12-13T11:32:15.205Z,98304
2017-12-13T11:34:22.986Z,98295
2017-12-13T11:36:28.872Z,98290
2017-12-13T11:38:36.317Z,98297
2017-12-13T11:40:42.414Z,98323
2017-12-13T11:42:49.367Z,98304
2017-12-13T11:44:57.124Z,98274
2017-12-13T11:47:05.934Z,98261
2017-12-13T11:49:16.445Z,98257
2017-12-13T11:51:24.594Z,98237
2017-12-13T11:53:36.823Z,98225
2017-12-13T11:55:43.747Z,98228
2017-12-13T11:57:54.240Z,98224
2017-12-13T12:00:10.175Z,98221
2017-12-13T12:02:17.334Z,98222
2017-12-13T12:04:26.528Z,98223
2017-12-13T12:06:33.154Z,98215
2017-12-13T12:08:39.535Z,98199
2017-12-13T12:10:47.783Z,98187
2017-12-13T12:12:57.828Z,98197
2017-12-13T12:15:09.627Z,98176
2017-12-13T12:17:16.368Z,98160
2017-12-13T12:19:26.512Z,98163
2017-12-13T12:21:37.526Z,98142
2017-12-13T12:23:46.305Z,98145
2017-12-13T12:25:53.546Z,98146
2017-12-13T12:28:00.354Z,98142
2017-12-13T12:30:11.444Z,98135
2017-12-13T12:32:19.534Z,98131
2017-12-13T12:34:26.899Z,98141
2017-12-13T12:36:35.209Z,98115
2017-12-13T12:38:44.302Z,98109
2017-12-13T12:40:52.081Z,98098
2017-12-13T12:42:58.493Z,98087
2017-12-13T12:45:14.476Z,98090
2017-12-13T12:47:25.545Z,98080
2017-12-13T12:49:38.847Z,98069
2017-12-13T12:51:50.465Z,98058
2017-12-13T12:53:58.311Z,98041
2017-12-13T12:56:04.806Z,98043
2017-12-13T12:58:12.898Z,98039
2017-12-13T13:00:20.771Z,98037
2017-12-13T13:02:28.995Z,98028
2017-12-13T13:04:38.853Z,98022
2017-12-13T13:06:45.191Z,98028
2017-12-13T13:08:55.721Z,98025
2017-12-13T13:11:07.496Z,98019
2017-12-13T13:13:17.683Z,98003
2017-12-13T13:15:35.611Z,97999
2017-12-13T13:17:47.419Z,97997
2017-12-13T13:19:59.418Z,97993
2017-12-13T13:22:09.405Z,97966
2017-12-13T13:24:21.564Z,97967
2017-12-13T13:26:34.266Z,97948
2017-12-13T13:28:41.839Z,97937
2017-12-13T13:30:48.778Z,97943
2017-12-13T13:33:00.741Z,97939
2017-12-13T13:35:22.113Z,97930
2017-12-13T13:37:32.363Z,97928
2017-12-13T13:39:44.812Z,97927
2017-12-13T13:41:51.261Z,97920
2017-12-13T13:43:58.597Z,97914
2017-12-13T13:46:07.951Z,97908
2017-12-13T13:48:18.152Z,97913
2017-12-13T13:50:25.426Z,97903
2017-12-13T13:52:33.390Z,97910
2017-12-13T13:54:46.526Z,97904
2017-12-13T13:56:55.823Z,97899
2017-12-13T13:59:10.582Z,97893
2017-12-13T14:01:19.621Z,97886
2017-12-13T14:03:27.966Z,97880
2017-12-13T14:05:35.243Z,97884
2017-12-13T14:07:43.273Z,97871
2017-12-13T14:09:49.783Z,97876
2017-12-13T14:11:55.713Z,97870
2017-12-13T14:14:04.291Z,97870
2017-12-13T14:16:14.317Z,97870
2017-12-13T14:18:22.872Z,97866
2017-12-13T14:20:30.301Z,97868
2017-12-13T14:22:38.953Z,97857
2017-12-13T14:24:46.816Z,97855
2017-12-13T14:26:55.970Z,97865
2017-12-13T14:29:08.609Z,97859
2017-12-13T14:31:16.732Z,97863
2017-12-13T14:33:24.598Z,97853
2017-12-13T14:35:33.369Z,97849
2017-12-13T14:37:40.982Z,97850
2017-12-13T14:39:46.486Z,97854
2017-12-13T14:41:54.286Z,97839
2017-12-13T14:44:03.101Z,97826
2017-12-13T14:46:09.003Z,97815
2017-12-13T14:48:15.380Z,97823
2017-12-13T14:50:21.093Z,97818
2017-12-13T14:52:29.341Z,97810
2017-12-13T14:54:38.007Z,97804
2017-12-13T14:56:43.950Z,97836
2017-12-13T14:58:50.498Z,97803
2017-12-13T15:01:04.461Z,97806
2017-12-13T15:03:10.755Z,97796
2017-12-13T15:05:20.144Z,97797
2017-12-13T15:07:28.359Z,97800
2017-12-13T15:09:38.231Z,97769
2017-12-13T15:11:50.208Z,97793
2017-12-13T15:14:04.986Z,97795
2017-12-13T15:16:17.351Z,97766
2017-12-13T15:20:46.940Z,97770
2017-12-13T15:22:58.169Z,97748
2017-12-13T15:25:13.833Z,97740
2017-12-13T15:27:21.574Z,97742
2017-12-13T15:29:33.501Z,97710
2017-12-13T15:31:44.033Z,97732
2017-12-13T15:33:54.263Z,97700
2017-12-13T15:36:11.307Z,97681
2017-12-13T15:38:21.474Z,97658
2017-12-13T15:40:31.109Z,97655
2017-12-13T15:42:44.616Z,97660
2017-12-13T15:44:52.929Z,97666
2017-12-13T15:47:04.774Z,97649
2017-12-13T15:49:17.026Z,97632
2017-12-13T15:51:30.557Z,97620
2017-12-13T15:53:42.932Z,97636
2017-12-13T15:55:52.844Z,97612
2017-12-13T15:58:05.635Z,97622
2017-12-13T16:00:25.392Z,97602
2017-12-13T16:02:49.349Z,97597
2017-12-13T16:05:10.763Z,97607
2017-12-13T16:07:23.395Z,97639
2017-12-13T16:09:32.607Z,97579
2017-12-13T16:11:47.203Z,97589
2017-12-13T16:13:56.104Z,97556
2017-12-13T16:16:06.385Z,97556
2017-12-13T16:18:13.786Z,97557
2017-12-13T16:20:25.588Z,97547
2017-12-13T16:22:34.219Z,97554
2017-12-13T16:24:51.501Z,97572
2017-12-13T16:27:09.191Z,97555
2017-12-13T16:29:26.214Z,97555
2017-12-13T16:31:36.836Z,97537
2017-12-13T16:33:48.421Z,97558
2017-12-13T16:36:02.501Z,97537
2017-12-13T16:38:13.625Z,97540
2017-12-13T16:40:24.198Z,97531
2017-12-13T16:42:35.899Z,97536
2017-12-13T16:44:54.795Z,97507
2017-12-13T16:47:05.048Z,97536
2017-12-13T16:49:20.615Z,97534
2017-12-13T16:51:31.321Z,97541
2017-12-13T16:53:51.519Z,97546
2017-12-13T16:56:01.222Z,97538
2017-12-13T16:58:09.929Z,97553
2017-12-13T17:03:02.506Z,97534
2017-12-13T17:05:25.651Z,97533
2017-12-13T17:07:46.337Z,97545
2017-12-13T17:09:55.600Z,97540
2017-12-13T17:12:13.489Z,97549
2017-12-13T17:14:23.520Z,97517
2017-12-13T17:16:34.313Z,97528
2017-12-13T17:18:43.581Z,97526
2017-12-13T17:21:03.782Z,97527
2017-12-13T17:23:13.435Z,97521
2017-12-13T17:25:30.866Z,97525
2017-12-13T17:27:51.291Z,97516
2017-12-13T17:30:11.072Z,97503
2017-12-13T17:32:22.353Z,97494
2017-12-13T17:34:36.419Z,97498
2017-12-13T17:36:45.428Z,97497
2017-12-13T17:38:58.174Z,97483
2017-12-13T17:41:18.500Z,97481
2017-12-13T17:43:37.050Z,97468
2017-12-13T17:45:50.406Z,97469
2017-12-13T17:48:06.880Z,97477
2017-12-13T17:50:18.377Z,97470
2017-12-13T17:52:30.698Z,97463
2017-12-13T17:54:47.771Z,97462
2017-12-13T17:56:59.146Z,97453
2017-12-13T17:59:12.988Z,97456
2017-12-13T18:01:33.073Z,97424
2017-12-13T18:03:45.716Z,97432
2017-12-13T18:06:08.689Z,97445
2017-12-13T18:08:16.838Z,97435
2017-12-13T18:10:29.491Z,97410
2017-12-13T18:12:41.060Z,97416
2017-12-13T18:14:55.806Z,97406
2017-12-13T18:17:05.714Z,97399
2017-12-13T18:19:18.435Z,97392
2017-12-13T18:21:31.190Z,97381
2017-12-13T18:23:42.955Z,97365
2017-12-13T18:26:00.457Z,97378
2017-12-13T18:28:33.425Z,97372
2017-12-13T18:30:48.553Z,97366
2017-12-13T18:32:58.410Z,97360
2017-12-13T18:35:11.274Z,97353
2017-12-13T18:37:23.474Z,97362
2017-12-13T18:39:38.158Z,97352
2017-12-13T18:41:58.263Z,97343
2017-12-13T18:44:13.795Z,97336
2017-12-13T18:46:32.695Z,97335
2017-12-13T18:48:39.859Z,97318
2017-12-13T18:50:59.394Z,97306
2017-12-13T18:53:16.478Z,97297
2017-12-13T18:55:40.509Z,97292
2017-12-13T18:57:54.949Z,97309
2017-12-13T19:00:05.754Z,97275
2017-12-13T19:02:17.457Z,97281
2017-12-13T19:04:25.168Z,97268
2017-12-13T19:06:36.391Z,97257
2017-12-13T19:08:47.472Z,97256
2017-12-13T19:11:03.927Z,97236
2017-12-13T19:13:13.728Z,97243
2017-12-13T19:15:28.512Z,97237
2017-12-13T19:17:41.331Z,97227
2017-12-13T19:19:58.212Z,97213
2017-12-13T19:22:08.805Z,97213
2017-12-13T19:24:31.376Z,97208
2017-12-13T19:29:04.106Z,97206
2017-12-13T19:31:15.302Z,97195
2017-12-13T19:33:24.808Z,97201
2017-12-13T19:35:45.268Z,97207
2017-12-13T19:38:10.844Z,97197
2017-12-13T19:40:18.713Z,97205
2017-12-13T19:42:29.293Z,97194
2017-12-13T19:44:49.287Z,97197
2017-12-13T19:46:59.394Z,97179
2017-12-13T19:49:14.482Z,97182
2017-12-13T19:51:37.563Z,97185
2017-12-13T19:53:48.825Z,97183
2017-12-13T19:55:57.309Z,97163
2017-12-13T19:58:14.125Z,97171
2017-12-13T20:00:21.994Z,97164
2017-12-13T20:02:40.566Z,97168
2017-12-13T20:04:56.917Z,97162
2017-12-13T20:09:28.349Z,97139
2017-12-13T20:11:41.506Z,97135
2017-12-13T20:13:52.540Z,97114
2017-12-13T20:16:14.217Z,97120
2017-12-13T20:18:33.347Z,97115
2017-12-13T20:20:51.328Z,97110
2017-12-13T20:23:10.535Z,97104
2017-12-13T20:25:28.348Z,97111
2017-12-13T20:27:52.805Z,97097
2017-12-13T20:32:29.248Z,97081
2017-12-13T20:34:53.300Z,97083
2017-12-13T20:37:12.729Z,97062
2017-12-13T20:47:22.395Z,97024
2017-12-13T20:49:40.076Z,97029
2017-12-13T20:52:11.244Z,97015
2017-12-13T20:54:31.365Z,97017
2017-12-13T20:56:57.514Z,96985
2017-12-13T21:01:56.545Z,96989
2017-12-13T21:04:11.504Z,96977
2017-12-13T21:06:27.000Z,96985
2017-12-13T21:08:43.079Z,96975
2017-12-13T21:10:55.147Z,96966
2017-12-13T21:13:15.361Z,96962
2017-12-13T21:15:26.775Z,96955
2017-12-13T21:18:00.331Z,96937
2017-12-13T21:20:15.012Z,96921
2017-12-13T21:22:28.983Z,96903
2017-12-13T21:24:48.315Z,96898
2017-12-13T21:27:19.209Z,96892
2017-12-13T21:29:31.552Z,96883
2017-12-13T21:31:48.640Z,96870
2017-12-13T21:33:58.245Z,96858
2017-12-13T21:38:33.922Z,96835
2017-12-13T21:40:43.435Z,96832
2017-12-13T21:42:56.529Z,96828
2017-12-13T21:45:21.649Z,96849
2017-12-13T21:47:34.498Z,96808
2017-12-13T21:49:52.745Z,96811
2017-12-13T21:52:08.504Z,96788
2017-12-13T21:54:28.168Z,96766
2017-12-13T21:56:46.799Z,96757
2017-12-13T21:59:04.094Z,96752
2017-12-13T22:01:35.664Z,96758
2017-12-13T22:03:45.409Z,96743
2017-12-13T22:06:02.023Z,96732
2017-12-13T22:08:24.129Z,96732
2017-12-13T22:10:41.478Z,96725
2017-12-13T22:12:54.164Z,96737
2017-12-13T22:15:12.962Z,96710
2017-12-13T22:17:29.148Z,96704
2017-12-13T22:19:50.541Z,96705
2017-12-13T22:22:12.019Z,96705
2017-12-13T22:24:25.051Z,96692
2017-12-13T22:26:37.664Z,96709
2017-12-13T22:28:56.952Z,96692
2017-12-13T22:31:10.316Z,96706
2017-12-13T22:33:20.124Z,96681
2017-12-13T22:35:34.760Z,96693
2017-12-13T22:37:44.863Z,96713
2017-12-13T22:39:51.813Z,96697
2017-12-13T22:42:04.557Z,96690
2017-12-13T22:44:18.037Z,96696
2017-12-13T22:46:33.157Z,96679
2017-12-13T22:48:49.964Z,96656
2017-12-13T22:51:08.208Z,96655
2017-12-13T22:53:24.751Z,96627
2017-12-13T22:55:39.203Z,96634
2017-12-13T22:57:49.903Z,96640
2017-12-13T23:00:00.480Z,96633
2017-12-13T23:04:38.693Z,96613
2017-12-13T23:06:49.671Z,96605
2017-12-13T23:08:57.240Z,96611
2017-12-13T23:13:31.077Z,96605
2017-12-13T23:18:03.014Z,96591
2017-12-13T23:20:13.617Z,96583
2017-12-13T23:22:34.221Z,96566
2017-12-13T23:24:51.772Z,96552
2017-12-13T23:27:04.367Z,96552
2017-12-13T23:29:15.100Z,96543
2017-12-13T23:31:37.492Z,96540
2017-12-13T23:33:55.704Z,96524
2017-12-13T23:36:06.866Z,96528
2017-12-13T23:38:16.434Z,96491
2017-12-13T23:40:26.092Z,96502
2017-12-13T23:44:34.714Z,96496
2017-12-13T23:46:54.075Z,96497
2017-12-13T23:49:05.165Z,96486
2017-12-13T23:51:17.841Z,96487
2017-12-13T23:53:28.488Z,96461
2017-12-13T23:55:35.263Z,96494
2017-12-13T23:57:54.800Z,96467
